createdAt,value
2018-02-10T00:01:34.390Z,32.43
2018-02-10T00:04:35.822Z,32.77
2018-02-10T00:07:37.202Z,42.27
2018-02-10T00:10:38.613Z,35.20
2018-02-10T00:13:40.012Z,30.97
2018-02-10T00:16:41.380Z,38.03
2018-02-10T00:19:42.759Z,34.70
2018-02-10T00:22:47.153Z,39.57
2018-02-10T00:25:48.612Z,39.37
2018-02-10T00:28:49.966Z,38.80
2018-02-10T00:31:51.370Z,38.40
2018-02-10T00:34:52.775Z,37.17
2018-02-10T00:37:54.896Z,34.60
2018-02-10T00:40:56.319Z,45.10
2018-02-10T00:43:57.689Z,42.03
2018-02-10T00:46:59.086Z,38.70
2018-02-10T00:50:00.543Z,32.57
2018-02-10T00:53:01.883Z,37.47
2018-02-10T00:56:03.310Z,40.67
2018-02-10T00:59:04.674Z,39.80
2018-02-10T01:02:06.047Z,34.43
2018-02-10T01:05:07.442Z,36.97
2018-02-10T01:08:08.760Z,39.93
2018-02-10T01:11:10.164Z,35.67
2018-02-10T01:14:12.312Z,38.60
2018-02-10T01:17:13.675Z,41.17
2018-02-10T01:20:15.060Z,32.57
2018-02-10T01:23:16.447Z,38.63
2018-02-10T01:26:17.787Z,45.87
2018-02-10T01:29:19.878Z,40.90
2018-02-10T01:32:21.950Z,41.87
2018-02-10T01:35:23.277Z,40.00
2018-02-10T01:38:24.621Z,37.47
2018-02-10T01:41:26.261Z,31.77
2018-02-10T01:44:27.693Z,41.47
2018-02-10T01:47:29.267Z,38.87
2018-02-10T01:50:31.684Z,40.00
2018-02-10T01:53:33.379Z,41.27
2018-02-10T01:56:34.723Z,40.33
2018-02-10T01:59:36.049Z,33.57
2018-02-10T02:02:38.145Z,33.90
2018-02-10T02:05:39.502Z,35.10
2018-02-10T02:08:40.876Z,40.20
2018-02-10T02:11:42.227Z,44.60
2018-02-10T02:14:43.580Z,41.30
2018-02-10T02:17:45.725Z,43.73
2018-02-10T02:20:47.120Z,40.47
2018-02-10T02:23:48.511Z,41.53
2018-02-10T02:26:49.876Z,42.10
2018-02-10T02:29:51.251Z,30.43
2018-02-10T02:32:52.866Z,37.30
2018-02-10T02:35:54.245Z,43.80
2018-02-10T02:38:55.812Z,41.80
2018-02-10T02:41:57.202Z,41.57
2018-02-10T02:44:58.570Z,48.53
2018-02-10T02:48:00.031Z,36.97
2018-02-10T02:51:02.127Z,52.40
2018-02-10T02:54:04.201Z,41.40
2018-02-10T02:57:05.596Z,40.43
2018-02-10T03:00:07.743Z,45.83
2018-02-10T03:03:09.104Z,44.97
2018-02-10T03:06:10.499Z,48.60
2018-02-10T03:09:11.823Z,43.17
2018-02-10T03:15:21.169Z,41.07
2018-02-10T03:18:23.218Z,40.80
2018-02-10T03:21:24.527Z,44.43
2018-02-10T03:24:25.859Z,47.23
2018-02-10T03:27:27.204Z,47.00
2018-02-10T03:30:29.297Z,48.80
2018-02-10T03:33:31.438Z,45.77
2018-02-10T03:36:32.786Z,44.83
2018-02-10T03:39:34.142Z,39.03
2018-02-10T03:42:35.490Z,51.43
2018-02-10T03:45:36.832Z,49.20
2018-02-10T03:48:38.893Z,45.53
2018-02-10T03:51:40.233Z,43.60
2018-02-10T03:54:42.586Z,44.27
2018-02-10T03:57:43.930Z,40.37
2018-02-10T04:00:45.232Z,30.40
2018-02-10T04:03:46.580Z,44.77
2018-02-10T04:06:47.903Z,48.33
2018-02-10T04:09:49.233Z,45.37
2018-02-10T04:12:50.610Z,47.10
2018-02-10T04:15:51.915Z,50.57
2018-02-10T04:18:53.240Z,47.90
2018-02-10T04:21:55.295Z,53.77
2018-02-10T04:24:56.603Z,54.37
2018-02-10T04:27:58.064Z,46.30
2018-02-10T04:30:59.378Z,46.93
2018-02-10T04:34:01.496Z,45.17
2018-02-10T04:37:02.876Z,55.67
2018-02-10T04:40:04.245Z,48.93
2018-02-10T04:43:06.317Z,50.50
2018-02-10T04:46:07.760Z,51.70
2018-02-10T04:49:09.162Z,52.17
2018-02-10T04:52:10.507Z,54.40
2018-02-10T04:55:11.837Z,52.90
2018-02-10T04:58:13.214Z,52.00
2018-02-10T05:01:14.569Z,55.80
2018-02-10T05:04:15.903Z,43.50
2018-02-10T05:07:17.963Z,56.30
2018-02-10T05:10:19.300Z,58.53
2018-02-10T05:13:20.684Z,59.33
2018-02-10T05:16:22.072Z,59.20
2018-02-10T05:19:23.421Z,63.27
2018-02-10T05:22:24.754Z,59.90
2018-02-10T05:25:26.043Z,62.73
2018-02-10T05:28:28.119Z,60.70
2018-02-10T05:31:29.440Z,70.00
2018-02-10T05:34:30.758Z,70.17
2018-02-10T05:37:32.097Z,66.10
2018-02-10T05:40:33.421Z,63.13
2018-02-10T05:43:34.758Z,72.97
2018-02-10T05:46:36.074Z,69.07
2018-02-10T05:49:37.480Z,72.83
2018-02-10T05:52:38.795Z,71.80
2018-02-10T05:55:40.133Z,69.37
2018-02-10T05:58:41.460Z,60.37
2018-02-10T06:01:42.744Z,57.70
2018-02-10T06:04:44.220Z,56.27
2018-02-10T06:07:45.516Z,58.50
2018-02-10T06:10:46.867Z,67.20
2018-02-10T06:13:48.180Z,62.03
2018-02-10T06:16:49.673Z,64.47
2018-02-10T06:19:51.192Z,67.77
2018-02-10T06:22:53.343Z,72.33
2018-02-10T06:25:54.631Z,66.43
2018-02-10T06:28:56.034Z,60.90
2018-02-10T06:31:57.373Z,69.93
2018-02-10T06:34:58.742Z,61.30
2018-02-10T06:38:00.075Z,56.30
2018-02-10T06:41:01.427Z,74.50
2018-02-10T06:44:02.712Z,66.50
2018-02-10T06:47:04.025Z,63.00
2018-02-10T06:50:05.365Z,61.13
2018-02-10T06:53:06.712Z,54.70
2018-02-10T06:56:08.766Z,67.37
2018-02-10T06:59:10.137Z,55.07
2018-02-10T07:02:11.622Z,56.10
2018-02-10T07:05:12.924Z,61.80
2018-02-10T07:08:14.270Z,56.60
2018-02-10T07:11:15.602Z,52.90
2018-02-10T07:14:16.910Z,51.47
2018-02-10T07:17:18.189Z,51.10
2018-02-10T07:20:19.495Z,56.60
2018-02-10T07:23:20.932Z,58.43
2018-02-10T07:26:22.274Z,49.37
2018-02-10T07:29:23.620Z,58.83
2018-02-10T07:32:24.928Z,55.03
2018-02-10T07:35:26.208Z,51.77
2018-02-10T07:38:27.545Z,57.00
2018-02-10T07:41:28.890Z,46.50
2018-02-10T07:44:30.224Z,50.87
2018-02-10T07:47:31.543Z,54.07
2018-02-10T07:50:32.863Z,48.57
2018-02-10T07:53:34.140Z,53.50
2018-02-10T07:56:35.470Z,50.87
2018-02-10T07:59:36.794Z,39.43
2018-02-10T08:02:38.869Z,45.23
2018-02-10T08:05:40.173Z,49.47
2018-02-10T08:08:42.260Z,48.23
2018-02-10T08:11:44.328Z,50.47
2018-02-10T08:14:45.619Z,58.43
2018-02-10T08:17:46.935Z,58.90
2018-02-10T08:20:48.250Z,42.03
2018-02-10T08:23:49.660Z,51.63
2018-02-10T08:26:50.981Z,50.97
2018-02-10T08:29:52.287Z,47.20
2018-02-10T08:32:53.631Z,47.30
2018-02-10T08:35:55.795Z,53.90
2018-02-10T08:38:57.182Z,53.30
2018-02-10T08:41:58.501Z,50.50
2018-02-10T08:44:59.814Z,51.13
2018-02-10T08:48:01.134Z,57.00
2018-02-10T08:51:03.187Z,51.73
2018-02-10T08:54:04.530Z,47.27
2018-02-10T08:57:05.833Z,48.47
2018-02-10T09:00:07.154Z,40.53
2018-02-10T09:03:08.734Z,46.80
2018-02-10T09:06:10.055Z,50.40
2018-02-10T09:09:12.096Z,36.40
2018-02-10T09:12:13.380Z,41.93
2018-02-10T09:15:14.704Z,39.00
2018-02-10T09:18:16.735Z,43.33
2018-02-10T09:21:18.066Z,45.50
2018-02-10T09:24:19.433Z,32.30
2018-02-10T09:27:20.713Z,42.70
2018-02-10T09:30:22.004Z,32.00
2018-02-10T09:33:23.297Z,37.37
2018-02-10T09:36:24.661Z,38.10
2018-02-10T09:39:25.998Z,34.87
2018-02-10T09:42:27.376Z,114.30
2018-02-10T09:45:28.704Z,57.00
2018-02-10T09:48:30.075Z,34.80
2018-02-10T09:51:31.394Z,36.50
2018-02-10T09:54:32.820Z,32.10
2018-02-10T09:57:34.199Z,30.77
2018-02-10T10:00:35.535Z,33.23
2018-02-10T10:03:36.918Z,34.40
2018-02-10T10:06:38.274Z,32.93
2018-02-10T10:09:40.428Z,27.10
2018-02-10T10:12:41.748Z,25.30
2018-02-10T10:15:43.039Z,31.80
2018-02-10T10:18:45.076Z,30.53
2018-02-10T10:21:46.423Z,32.70
2018-02-10T10:24:48.511Z,27.33
2018-02-10T10:27:49.844Z,28.77
2018-02-10T10:30:51.194Z,30.60
2018-02-10T10:33:52.536Z,29.43
2018-02-10T10:36:53.905Z,30.20
2018-02-10T10:39:55.696Z,28.57
2018-02-10T10:42:57.065Z,28.73
2018-02-10T10:45:58.421Z,30.83
2018-02-10T10:48:59.728Z,33.03
2018-02-10T10:52:01.037Z,28.37
2018-02-10T10:55:02.334Z,31.30
2018-02-10T10:58:04.414Z,29.57
2018-02-10T11:01:05.723Z,28.60
2018-02-10T11:04:07.035Z,23.57
2018-02-10T11:07:08.360Z,29.93
2018-02-10T11:10:10.432Z,30.43
2018-02-10T11:13:11.695Z,34.10
2018-02-10T11:16:13.147Z,30.37
2018-02-10T11:19:14.431Z,38.03
2018-02-10T11:22:15.815Z,78.77
2018-02-10T11:25:17.041Z,51.63
2018-02-10T11:28:18.409Z,31.10
2018-02-10T11:31:19.770Z,35.53
2018-02-10T11:34:21.082Z,36.90
2018-02-10T11:37:22.647Z,32.23
2018-02-10T11:40:23.987Z,31.63
2018-02-10T11:43:25.309Z,33.80
2018-02-10T11:46:26.642Z,33.60
2018-02-10T11:49:27.995Z,37.10
2018-02-10T11:52:29.341Z,35.23
2018-02-10T11:55:30.709Z,38.77
2018-02-10T11:58:32.031Z,30.77
2018-02-10T12:01:33.459Z,36.93
2018-02-10T12:04:34.877Z,43.23
2018-02-10T12:07:36.271Z,40.70
2018-02-10T12:10:37.641Z,40.90
2018-02-10T12:13:39.029Z,52.63
2018-02-10T12:16:40.373Z,44.77
2018-02-10T12:19:41.686Z,44.60
2018-02-10T12:22:43.041Z,46.97
2018-02-10T12:25:44.378Z,46.57
2018-02-10T12:28:46.492Z,43.23
2018-02-10T12:31:48.609Z,37.13
2018-02-10T12:34:49.936Z,42.23
2018-02-10T12:37:51.313Z,42.17
2018-02-10T12:40:52.733Z,34.20
2018-02-10T12:43:54.851Z,43.10
2018-02-10T12:46:56.206Z,44.67
2018-02-10T12:49:57.594Z,41.57
2018-02-10T12:52:58.967Z,30.27
2018-02-10T12:56:00.323Z,31.20
2018-02-10T12:59:01.679Z,25.80
2018-02-10T13:02:03.058Z,25.60
2018-02-10T13:05:04.439Z,30.03
2018-02-10T13:08:05.867Z,21.73
2018-02-10T13:11:07.266Z,21.17
2018-02-10T13:14:08.630Z,20.23
2018-02-10T13:17:09.993Z,18.83
2018-02-10T13:20:11.348Z,19.10
2018-02-10T13:23:12.717Z,19.97
2018-02-10T13:26:14.096Z,16.73
2018-02-10T13:29:15.494Z,19.43
2018-02-10T13:32:16.818Z,21.73
2018-02-10T13:35:18.201Z,21.00
2018-02-10T13:38:19.593Z,17.73
2018-02-10T13:41:20.965Z,20.77
2018-02-10T13:44:22.350Z,26.60
2018-02-10T13:47:23.713Z,17.20
2018-02-10T13:50:25.068Z,30.57
2018-02-10T13:53:26.426Z,21.07
2018-02-10T13:56:27.769Z,19.33
2018-02-10T13:59:29.907Z,19.23
2018-02-10T14:02:31.259Z,21.13
2018-02-10T14:05:32.615Z,23.00
2018-02-10T14:08:33.959Z,20.97
2018-02-10T14:11:35.325Z,22.80
2018-02-10T14:14:38.294Z,25.50
2018-02-10T14:17:39.635Z,24.33
2018-02-10T14:20:40.987Z,23.60
2018-02-10T14:23:42.434Z,26.33
2018-02-10T14:26:43.818Z,28.00
2018-02-10T14:29:45.209Z,29.60
2018-02-10T14:32:46.569Z,34.40
2018-02-10T14:35:47.948Z,30.37
2018-02-10T14:38:49.294Z,27.50
2018-02-10T14:41:51.394Z,44.83
2018-02-10T14:44:53.494Z,32.30
2018-02-10T14:47:54.857Z,30.43
2018-02-10T14:50:56.923Z,27.77
2018-02-10T14:53:58.325Z,29.23
2018-02-10T14:56:59.704Z,40.53
2018-02-10T15:00:01.064Z,38.37
2018-02-10T15:03:02.412Z,29.40
2018-02-10T15:06:03.739Z,30.10
2018-02-10T15:09:05.050Z,35.23
2018-02-10T15:12:07.172Z,30.00
2018-02-10T15:15:08.497Z,31.00
2018-02-10T15:18:09.844Z,27.47
2018-02-10T15:21:18.054Z,37.00
2018-02-10T15:24:20.132Z,33.33
2018-02-10T15:27:21.481Z,28.30
2018-02-10T15:30:41.201Z,30.97
2018-02-10T15:34:00.914Z,24.77
2018-02-10T15:37:02.321Z,33.17
2018-02-10T15:40:03.678Z,27.77
2018-02-10T15:43:05.026Z,31.63
2018-02-10T15:46:06.510Z,37.77
2018-02-10T15:49:07.967Z,35.30
2018-02-10T15:52:10.033Z,39.10
2018-02-10T15:55:11.379Z,37.13
2018-02-10T15:58:12.719Z,37.33
2018-02-10T16:01:14.058Z,40.13
2018-02-10T16:04:15.398Z,47.40
2018-02-10T16:07:17.517Z,44.77
2018-02-10T16:10:18.894Z,40.70
2018-02-10T16:13:20.264Z,41.80
2018-02-10T16:16:29.425Z,50.63
2018-02-10T16:19:31.526Z,36.80
2018-02-10T16:22:33.729Z,46.07
2018-02-10T16:25:35.841Z,47.57
2018-02-10T16:28:37.225Z,34.27
2018-02-10T16:31:38.734Z,33.87
2018-02-10T16:34:40.169Z,39.47
2018-02-10T16:37:42.272Z,32.80
2018-02-10T16:40:44.462Z,39.43
2018-02-10T16:43:46.555Z,28.83
2018-02-10T16:46:47.893Z,33.53
2018-02-10T16:49:49.265Z,36.40
2018-02-10T16:52:50.605Z,28.83
2018-02-10T16:55:52.695Z,28.30
2018-02-10T16:58:54.189Z,29.87
2018-02-10T17:01:56.282Z,32.50
2018-02-10T17:08:06.273Z,31.63
2018-02-10T17:11:07.689Z,228.43
2018-02-10T17:14:09.041Z,31.87
2018-02-10T17:17:10.362Z,26.60
2018-02-10T17:20:12.436Z,32.20
2018-02-10T17:23:13.740Z,34.83
2018-02-10T17:26:15.794Z,30.77
2018-02-10T17:29:17.134Z,52.37
2018-02-10T17:35:26.429Z,39.40
2018-02-10T17:38:28.532Z,35.93
2018-02-10T17:41:30.598Z,46.43
2018-02-10T17:44:31.966Z,50.53
2018-02-10T17:47:33.392Z,41.97
2018-02-10T17:50:34.878Z,42.80
2018-02-10T17:53:36.305Z,47.60
2018-02-10T17:56:37.672Z,42.80
2018-02-10T17:59:39.082Z,44.00
2018-02-10T18:02:41.785Z,53.70
2018-02-10T18:05:43.451Z,39.70
2018-02-10T18:08:45.098Z,32.77
2018-02-10T18:11:46.395Z,42.37
2018-02-10T18:14:47.716Z,33.53
2018-02-10T18:17:49.012Z,47.47
2018-02-10T18:20:50.354Z,42.03
2018-02-10T18:23:52.425Z,39.37
2018-02-10T18:26:53.790Z,32.87
2018-02-10T18:29:55.116Z,31.67
2018-02-10T18:32:57.203Z,32.10
2018-02-10T18:35:59.291Z,26.70
2018-02-10T18:39:01.408Z,32.47
2018-02-10T18:42:03.567Z,31.10
2018-02-10T18:45:04.876Z,35.57
2018-02-10T18:48:06.924Z,27.57
2018-02-10T18:51:08.294Z,34.07
2018-02-10T18:54:10.428Z,27.10
2018-02-10T18:57:18.688Z,22.93
2018-02-10T19:00:20.769Z,24.67
2018-02-10T19:03:22.067Z,19.50
2018-02-10T19:06:24.164Z,32.20
2018-02-10T19:09:26.348Z,29.07
2018-02-10T19:12:27.640Z,26.77
2018-02-10T19:15:29.756Z,25.73
2018-02-10T19:18:31.129Z,28.60
2018-02-10T19:21:33.213Z,19.50
2018-02-10T19:24:34.574Z,26.03
2018-02-10T19:27:35.912Z,20.43
2018-02-10T19:30:37.247Z,32.27
2018-02-10T19:33:38.563Z,26.07
2018-02-10T19:36:39.860Z,25.73
2018-02-10T19:39:41.178Z,20.20
2018-02-10T19:42:42.502Z,21.97
2018-02-10T19:45:43.814Z,25.00
2018-02-10T19:48:45.203Z,46.90
2018-02-10T19:51:46.497Z,18.07
2018-02-10T19:54:47.821Z,31.73
2018-02-10T19:57:49.127Z,19.30
2018-02-10T20:00:50.560Z,21.53
2018-02-10T20:03:51.886Z,20.10
2018-02-10T20:06:53.228Z,22.70
2018-02-10T20:09:55.014Z,20.43
2018-02-10T20:12:56.647Z,16.40
2018-02-10T20:15:58.019Z,20.37
2018-02-10T20:18:59.327Z,14.97
2018-02-10T20:22:00.857Z,19.10
2018-02-10T20:25:02.196Z,15.87
2018-02-10T20:28:03.709Z,19.30
2018-02-10T20:31:05.180Z,15.20
2018-02-10T20:34:06.627Z,14.60
2018-02-10T20:37:07.976Z,10.90
2018-02-10T20:40:09.374Z,14.27
2018-02-10T20:43:10.726Z,16.67
2018-02-10T20:46:12.802Z,22.00
2018-02-10T20:49:14.130Z,8.50
2018-02-10T20:52:16.171Z,14.40
2018-02-10T20:55:17.479Z,14.23
2018-02-10T20:58:18.827Z,17.70
2018-02-10T21:01:20.191Z,12.50
2018-02-10T21:04:21.674Z,10.60
2018-02-10T21:07:22.972Z,13.47
2018-02-10T21:10:24.323Z,11.50
2018-02-10T21:13:25.733Z,16.90
2018-02-10T21:16:27.036Z,11.03
2018-02-10T21:19:28.444Z,7.10
2018-02-10T21:22:29.739Z,6.77
2018-02-10T21:25:31.074Z,8.00
2018-02-10T21:28:32.375Z,7.40
2018-02-10T21:31:33.705Z,6.97
2018-02-10T21:34:35.725Z,9.73
2018-02-10T21:37:37.011Z,7.40
2018-02-10T21:40:38.330Z,6.37
2018-02-10T21:43:39.856Z,7.20
2018-02-10T21:46:41.185Z,7.50
2018-02-10T21:49:42.473Z,5.50
2018-02-10T21:52:43.808Z,9.43
2018-02-10T21:55:45.107Z,8.83
2018-02-10T21:58:46.528Z,7.83
2018-02-10T22:01:48.602Z,13.30
2018-02-10T22:04:49.938Z,11.27
2018-02-10T22:07:51.326Z,6.20
2018-02-10T22:10:53.104Z,9.73
2018-02-10T22:13:54.472Z,8.33
2018-02-10T22:16:55.824Z,7.57
2018-02-10T22:19:57.193Z,8.03
2018-02-10T22:22:58.570Z,8.70
2018-02-10T22:25:59.910Z,7.63
2018-02-10T22:29:01.215Z,8.70
2018-02-10T22:32:02.558Z,7.20
2018-02-10T22:35:03.930Z,7.17
2018-02-10T22:38:06.035Z,9.67
2018-02-10T22:41:08.104Z,6.60
2018-02-10T22:44:09.472Z,5.13
2018-02-10T22:47:11.155Z,6.23
2018-02-10T22:50:12.629Z,8.17
2018-02-10T22:53:13.968Z,4.47
2018-02-10T22:56:16.070Z,8.50
2018-02-10T22:59:17.379Z,6.30
2018-02-10T23:02:18.731Z,9.23
2018-02-10T23:05:20.091Z,8.03
2018-02-10T23:08:22.156Z,6.20
2018-02-10T23:11:23.591Z,5.63
2018-02-10T23:14:24.929Z,9.63
2018-02-10T23:17:26.239Z,5.80
2018-02-10T23:20:28.358Z,8.20
2018-02-10T23:23:29.721Z,7.53
2018-02-10T23:26:31.848Z,4.87
2018-02-10T23:29:33.459Z,12.60
2018-02-10T23:32:35.128Z,9.37
2018-02-10T23:35:37.634Z,14.00
2018-02-10T23:38:39.010Z,5.97
2018-02-10T23:41:40.366Z,8.40
2018-02-10T23:44:42.462Z,7.30
2018-02-10T23:47:43.910Z,8.93
2018-02-10T23:50:45.239Z,9.47
2018-02-10T23:53:47.293Z,9.23
2018-02-10T23:56:48.633Z,11.50
2018-02-10T23:59:50.006Z,6.80
